Time;durP1;ratioP1;P1;durP2;ratioP2;P2;SDS_P1;SDS_P2;PMS_P1;PMS_P2;Temp;Humidity;BMP_temperature;BMP_pressure;BME280_temperature;BME280_humidity;BME280_pressure;Samples;Min_cycle;Max_cycle;Signal;HPM_P1;HPM_P2
2023/04/18 00:00:14;;;;;;;11.73;9.27;;;;;;;6.26;75.89;102567.72;1035655;28;20351;-77
2023/04/18 00:00:48;;;;;;;11.90;9.60;;;;;;;6.23;76.26;102565.38;1041086;28;20303;-77
2023/04/18 00:01:20;;;;;;;11.18;9.07;;;;;;;6.25;75.81;102564.25;1044034;28;20301;-77
2023/04/18 00:01:52;;;;;;;9.77;8.25;;;;;;;6.23;75.63;102560.91;1043326;28;20304;-76
2023/04/18 00:02:24;;;;;;;11.75;9.32;;;;;;;6.25;75.95;102558.94;1043322;28;20291;-77
2023/04/18 00:02:57;;;;;;;23.77;9.48;;;;;;;6.30;75.30;102562.03;1043297;28;20302;-77
2023/04/18 00:03:31;;;;;;;12.85;9.60;;;;;;;6.25;75.82;102561.59;1039993;28;20315;-77
2023/04/18 00:04:04;;;;;;;13.50;9.38;;;;;;;6.26;75.40;102560.63;1039521;28;20299;-76
2023/04/18 00:04:36;;;;;;;11.25;9.15;;;;;;;6.22;76.00;102559.25;1039277;28;20300;-77
2023/04/18 00:05:08;;;;;;;11.95;10.75;;;;;;;6.23;76.16;102557.44;1042620;28;20801;-77
2023/04/18 00:05:40;;;;;;;10.13;8.48;;;;;;;6.20;75.55;102559.41;1032969;28;20822;-77
2023/04/18 00:06:13;;;;;;;14.27;9.38;;;;;;;6.21;75.55;102557.59;1038094;28;20868;-76
2023/04/18 00:06:46;;;;;;;9.40;8.38;;;;;;;6.20;75.80;102562.03;1043187;28;20341;-76
2023/04/18 00:07:17;;;;;;;14.05;9.68;;;;;;;6.17;76.63;102566.78;1042823;28;20311;-77
2023/04/18 00:07:50;;;;;;;10.65;9.32;;;;;;;6.10;76.31;102561.25;1042738;28;20307;-77
2023/04/18 00:08:21;;;;;;;11.73;9.18;;;;;;;6.10;76.30;102563.06;1045168;28;20338;-76
2023/04/18 00:08:53;;;;;;;14.80;9.68;;;;;;;6.08;76.19;102555.28;1043845;28;20350;-77
2023/04/18 00:09:24;;;;;;;11.27;9.88;;;;;;;6.09;76.15;102558.75;1047201;28;20306;-76
2023/04/18 00:09:56;;;;;;;11.13;8.98;;;;;;;6.07;76.54;102571.28;1047710;28;20301;-77
2023/04/18 00:10:28;;;;;;;15.52;9.98;;;;;;;6.03;76.63;102567.28;1043502;28;20338;-77
2023/04/18 00:10:59;;;;;;;12.73;9.43;;;;;;;6.02;77.07;102562.94;1039830;28;20317;-77
2023/04/18 00:11:31;;;;;;;11.07;9.20;;;;;;;6.07;75.97;102560.72;1039509;28;20343;-77
2023/04/18 00:12:03;;;;;;;11.88;8.82;;;;;;;6.05;76.17;102555.56;1042143;28;20295;-77
2023/04/18 00:12:35;;;;;;;11.00;9.40;;;;;;;6.06;76.36;102559.88;1041159;28;20438;-77
2023/04/18 00:13:07;;;;;;;11.73;8.98;;;;;;;6.05;75.91;102560.84;1035370;28;20368;-76
2023/04/18 00:13:39;;;;;;;11.52;8.77;;;;;;;6.10;75.47;102555.13;1031322;28;20300;-77
2023/04/18 00:14:11;;;;;;;11.55;9.15;;;;;;;6.08;75.71;102565.03;1027968;28;20313;-76
2023/04/18 00:14:43;;;;;;;11.63;9.10;;;;;;;6.08;75.94;102562.38;1025332;28;20299;-76
2023/04/18 00:15:17;;;;;;;14.63;9.07;;;;;;;6.13;75.15;102560.97;1033682;28;20305;-76
2023/04/18 00:15:52;;;;;;;12.52;8.85;;;;;;;6.12;75.28;102559.28;1036794;28;20825;-76
2023/04/18 00:16:24;;;;;;;12.45;9.27;;;;;;;6.12;75.19;102559.28;1042925;28;20295;-77
2023/04/18 00:16:56;;;;;;;12.45;10.15;;;;;;;6.17;74.91;102564.16;1042865;28;20291;-76
2023/04/18 00:17:29;;;;;;;13.93;9.00;;;;;;;6.14;75.06;102556.50;1037313;28;20301;-76
2023/04/18 00:18:02;;;;;;;15.98;10.05;;;;;;;6.11;75.03;102562.91;1037662;28;20296;-77
2023/04/18 00:18:35;;;;;;;13.02;9.88;;;;;;;6.12;74.89;102559.28;1036866;28;20296;-77
2023/04/18 00:19:07;;;;;;;11.40;9.00;;;;;;;6.05;75.96;102557.38;1040269;28;20323;-76
2023/04/18 00:19:42;;;;;;;12.23;9.68;;;;;;;6.06;75.25;102553.75;1035884;28;20293;-77
2023/04/18 00:20:13;;;;;;;13.52;10.05;;;;;;;6.05;75.68;102557.38;1042264;28;20315;-77
2023/04/18 00:20:45;;;;;;;12.70;9.20;;;;;;;5.97;76.11;102560.72;1040859;28;20300;-77
2023/04/18 00:21:17;;;;;;;15.52;9.25;;;;;;;6.01;75.32;102555.97;1035933;28;20810;-76
2023/04/18 00:21:52;;;;;;;12.95;9.35;;;;;;;6.02;75.73;102555.81;1036856;28;20647;-77
2023/04/18 00:22:24;;;;;;;15.77;9.93;;;;;;;5.94;76.50;102562.81;1037651;28;20300;-77
2023/04/18 00:22:55;;;;;;;11.57;9.50;;;;;;;5.94;76.35;102563.66;1040798;28;20417;-77
2023/04/18 00:23:29;;;;;;;13.40;10.23;;;;;;;5.95;76.03;102561.84;1044328;28;20318;-77
2023/04/18 00:24:00;;;;;;;15.02;9.80;;;;;;;5.97;75.66;102557.25;1043413;28;20808;-77
2023/04/18 00:24:32;;;;;;;12.48;9.10;;;;;;;5.93;76.11;102563.81;1044106;28;20805;-77
2023/04/18 00:25:04;;;;;;;11.35;9.32;;;;;;;5.94;75.59;102554.88;1044515;28;20303;-76
2023/04/18 00:25:36;;;;;;;13.23;9.68;;;;;;;5.92;76.23;102562.97;1045561;28;20314;-77
2023/04/18 00:26:08;;;;;;;10.55;9.25;;;;;;;5.97;75.61;102559.88;1048008;28;20338;-77
2023/04/18 00:26:39;;;;;;;12.55;9.23;;;;;;;5.96;75.06;102563.50;1040211;28;20296;-76
2023/04/18 00:27:11;;;;;;;15.35;8.65;;;;;;;5.94;75.92;102561.00;1035904;28;20292;-77
2023/04/18 00:27:43;;;;;;;12.65;9.63;;;;;;;5.95;75.81;102561.84;1038380;28;20923;-76
2023/04/18 00:28:15;;;;;;;11.05;8.48;;;;;;;5.97;75.66;102565.19;1039769;28;20802;-77
2023/04/18 00:28:46;;;;;;;11.70;9.45;;;;;;;5.93;76.00;102563.81;1037886;28;20304;-77
2023/04/18 00:29:18;;;;;;;13.40;8.30;;;;;;;5.86;76.30;102564.34;1043908;28;20325;-76
2023/04/18 00:29:49;;;;;;;21.27;9.88;;;;;;;5.87;76.01;102560.72;1042646;28;20643;-76
2023/04/18 00:30:21;;;;;;;11.38;8.90;;;;;;;5.93;75.65;102558.50;1044197;28;20299;-78
2023/04/18 00:30:52;;;;;;;13.55;9.32;;;;;;;5.94;75.55;102560.19;1045817;28;20297;-76
2023/04/18 00:31:24;;;;;;;13.02;8.68;;;;;;;5.96;75.19;102563.50;1044898;28;20727;-76
2023/04/18 00:31:56;;;;;;;18.17;12.43;;;;;;;5.97;75.79;102558.06;1044635;28;20307;-77
2023/04/18 00:32:28;;;;;;;13.75;9.05;;;;;;;5.93;75.39;102562.00;1039899;28;20298;-76
2023/04/18 00:33:03;;;;;;;12.52;9.57;;;;;;;5.96;75.47;102558.22;1035428;28;20309;-76
2023/04/18 00:33:34;;;;;;;11.07;9.02;;;;;;;5.91;75.83;102556.00;1036125;28;20297;-76
2023/04/18 00:34:06;;;;;;;14.57;9.23;;;;;;;5.91;75.83;102563.94;1038486;28;20288;-77
2023/04/18 00:34:39;;;;;;;11.60;8.77;;;;;;;5.87;75.79;102566.00;1039908;28;20651;-77
2023/04/18 00:35:10;;;;;;;17.52;10.13;;;;;;;5.86;75.88;102567.00;1036132;28;20312;-76
2023/04/18 00:35:42;;;;;;;12.27;9.68;;;;;;;5.91;75.42;102565.75;1032546;28;20297;-77
2023/04/18 00:36:14;;;;;;;10.63;8.75;;;;;;;5.88;75.81;102562.38;1038702;28;20296;-76
2023/04/18 00:36:45;;;;;;;11.70;9.65;;;;;;;5.86;76.42;102567.00;1036607;28;20316;-77
2023/04/18 00:37:17;;;;;;;10.68;8.82;;;;;;;5.83;77.00;102564.63;1044169;28;20299;-81
2023/04/18 00:37:48;;;;;;;9.40;8.45;;;;;;;5.80;77.07;102572.84;1047180;28;20317;-81
2023/04/18 00:38:20;;;;;;;12.80;9.63;;;;;;;5.81;76.54;102571.88;1046527;28;20307;-79
2023/04/18 00:38:51;;;;;;;12.40;8.88;;;;;;;5.88;75.87;102567.69;1048351;28;20282;-79
2023/04/18 00:39:23;;;;;;;13.30;9.38;;;;;;;5.87;76.06;102560.72;1044431;28;20350;-80
2023/04/18 00:39:54;;;;;;;10.70;8.38;;;;;;;5.85;76.22;102567.97;1039944;28;20385;-79
2023/04/18 00:40:26;;;;;;;15.52;8.40;;;;;;;5.81;76.58;102569.25;1043937;28;20737;-80
2023/04/18 00:40:58;;;;;;;10.38;9.25;;;;;;;5.81;76.68;102571.88;1041919;28;20303;-80
2023/04/18 00:41:30;;;;;;;12.65;9.77;;;;;;;5.83;76.50;102562.00;1043865;28;20303;-79
2023/04/18 00:42:02;;;;;;;10.60;8.88;;;;;;;5.81;76.67;102569.25;1044433;28;20797;-79
2023/04/18 00:42:34;;;;;;;9.57;8.60;;;;;;;5.79;76.78;102565.91;1039869;28;20308;-79
2023/04/18 00:43:06;;;;;;;10.68;9.10;;;;;;;5.77;76.81;102562.56;1039714;28;20306;-79
2023/04/18 00:43:38;;;;;;;14.90;9.82;;;;;;;5.81;76.33;102565.75;1040180;28;20303;-79
2023/04/18 00:44:10;;;;;;;11.07;9.13;;;;;;;5.79;76.32;102571.19;1036654;28;20300;-79
2023/04/18 00:44:41;;;;;;;15.82;9.48;;;;;;;5.75;76.71;102561.88;1038814;28;20355;-79
2023/04/18 00:45:13;;;;;;;13.85;10.18;;;;;;;5.74;77.03;102564.63;1036465;28;20336;-81
2023/04/18 00:45:45;;;;;;;10.98;8.00;;;;;;;5.73;76.47;102562.97;1039964;28;20315;-78
2023/04/18 00:46:16;;;;;;;12.05;8.70;;;;;;;5.78;76.25;102560.75;1032037;28;20305;-80
2023/04/18 00:46:48;;;;;;;13.57;10.18;;;;;;;5.79;76.20;102557.97;1036110;28;20802;-79
2023/04/18 00:47:20;;;;;;;10.27;9.23;;;;;;;5.81;76.34;102556.03;1038650;28;20296;-79
2023/04/18 00:47:52;;;;;;;11.80;8.95;;;;;;;5.77;76.79;102562.56;1038866;28;20315;-80
2023/04/18 00:48:23;;;;;;;12.90;9.15;;;;;;;5.77;76.50;102559.94;1046934;28;20335;-79
2023/04/18 00:48:57;;;;;;;17.30;9.13;;;;;;;5.70;77.01;102565.91;1046270;28;20310;-79
2023/04/18 00:49:29;;;;;;;14.23;10.40;;;;;;;5.63;77.73;102568.28;1040347;28;20296;-79
2023/04/18 00:50:01;;;;;;;11.68;8.73;;;;;;;5.63;77.87;102568.28;1040543;28;20387;-78
2023/04/18 00:50:32;;;;;;;12.77;8.90;;;;;;;5.64;77.72;102564.66;1043654;28;20302;-79
2023/04/18 00:51:06;;;;;;;10.98;9.57;;;;;;;5.68;77.01;102557.28;1032572;28;20301;-78
2023/04/18 00:51:38;;;;;;;12.80;8.52;;;;;;;5.64;77.47;102564.66;1028714;28;20824;-78
2023/04/18 00:52:13;;;;;;;9.82;8.40;;;;;;;5.60;77.61;102563.28;1028457;28;20325;-80
2023/04/18 00:52:45;;;;;;;12.77;8.13;;;;;;;5.58;77.93;102563.44;1028682;28;20298;-80
2023/04/18 00:53:17;;;;;;;11.23;9.50;;;;;;;5.58;77.67;102559.94;1027496;28;20362;-80
2023/04/18 00:53:49;;;;;;;12.25;8.00;;;;;;;5.64;76.71;102554.09;1036769;28;20782;-80
2023/04/18 00:54:21;;;;;;;11.77;8.60;;;;;;;5.63;77.02;102554.22;1036056;28;20301;-80
2023/04/18 00:54:53;;;;;;;14.27;9.23;;;;;;;5.63;77.53;102552.41;1038685;28;20296;-81
2023/04/18 00:55:25;;;;;;;14.25;9.15;;;;;;;5.58;77.51;102555.50;1039720;28;20308;-80
2023/04/18 00:55:56;;;;;;;12.32;9.18;;;;;;;5.58;77.82;102560.78;1035853;28;20305;-79
2023/04/18 00:56:28;;;;;;;10.10;9.07;;;;;;;5.61;77.09;102554.38;1036092;28;20308;-81
2023/04/18 00:57:01;;;;;;;13.13;9.27;;;;;;;5.60;77.25;102555.34;1040967;28;20343;-80
2023/04/18 00:57:33;;;;;;;17.42;9.18;;;;;;;5.63;77.13;102555.06;1047901;28;20437;-81
2023/04/18 00:58:06;;;;;;;11.20;8.98;;;;;;;5.61;77.13;102553.53;1043835;28;20295;-80
2023/04/18 00:58:39;;;;;;;10.23;9.13;;;;;;;5.57;77.40;102559.13;1043691;28;20311;-80
2023/04/18 00:59:12;;;;;;;12.35;9.30;;;;;;;5.55;77.38;102550.50;1039351;28;20813;-80
2023/04/18 00:59:45;;;;;;;13.10;9.45;;;;;;;5.55;77.54;102554.94;1033402;28;20315;-81
2023/04/18 01:00:17;;;;;;;10.00;8.98;;;;;;;5.57;77.46;102550.34;1035820;28;20316;-80
2023/04/18 01:00:49;;;;;;;13.20;8.93;;;;;;;5.57;77.59;102553.81;1035259;28;20640;-80
2023/04/18 01:01:20;;;;;;;15.40;9.25;;;;;;;5.55;77.83;102554.94;1040502;28;20296;-78
2023/04/18 01:01:52;;;;;;;13.00;9.73;;;;;;;5.55;77.48;102552.31;1039169;28;21247;-78
2023/04/18 01:02:24;;;;;;;13.05;9.52;;;;;;;5.56;77.37;102557.44;1035911;28;20301;-81
2023/04/18 01:02:58;;;;;;;15.75;9.55;;;;;;;5.48;77.81;102554.69;1036193;28;20308;-80
2023/04/18 01:03:30;;;;;;;15.07;10.25;;;;;;;5.48;77.85;102552.03;1033167;28;20309;-80
2023/04/18 01:04:03;;;;;;;10.43;8.63;;;;;;;5.43;78.33;102551.59;1035901;28;20354;-80
2023/04/18 01:04:36;;;;;;;17.00;10.32;;;;;;;5.43;78.03;102556.88;1031230;28;20305;-80
2023/04/18 01:05:07;;;;;;;15.98;9.60;;;;;;;5.42;78.15;102554.38;1032533;28;20301;-81
2023/04/18 01:05:40;;;;;;;12.63;8.70;;;;;;;5.42;78.30;102549.09;1032412;28;20302;-80
2023/04/18 01:06:12;;;;;;;14.05;9.55;;;;;;;5.43;77.82;102553.41;1037633;28;20314;-80
2023/04/18 01:06:44;;;;;;;9.77;8.82;;;;;;;5.46;77.88;102556.59;1043594;28;20300;-80
2023/04/18 01:07:16;;;;;;;16.77;10.60;;;;;;;5.45;78.01;102560.22;1041123;28;20295;-80
2023/04/18 01:07:48;;;;;;;11.65;8.57;;;;;;;5.42;78.12;102549.09;1047899;28;20379;-80
2023/04/18 01:08:20;;;;;;;12.57;9.02;;;;;;;5.44;77.70;102550.63;1039478;28;20818;-80
2023/04/18 01:08:55;;;;;;;11.25;9.55;;;;;;;5.48;77.34;102554.69;1039677;28;20300;-80
2023/04/18 01:09:28;;;;;;;9.57;8.68;;;;;;;5.48;77.41;102559.13;1031428;28;20772;-80
2023/04/18 01:10:00;;;;;;;13.43;9.55;;;;;;;5.49;77.68;102550.22;1027479;28;20823;-80
2023/04/18 01:10:32;;;;;;;13.98;9.10;;;;;;;5.48;77.82;102553.84;1035670;28;20293;-80
2023/04/18 01:11:04;;;;;;;11.32;9.65;;;;;;;5.44;78.22;102557.72;1033192;28;20309;-80
2023/04/18 01:11:36;;;;;;;12.43;9.57;;;;;;;5.41;78.38;102553.56;1040633;28;20303;-81
2023/04/18 01:12:07;;;;;;;13.65;9.68;;;;;;;5.42;78.17;102557.88;1037473;28;20786;-80
2023/04/18 01:12:39;;;;;;;17.60;9.40;;;;;;;5.42;78.29;102559.66;1039798;28;20800;-81
2023/04/18 01:13:13;;;;;;;12.75;9.93;;;;;;;5.36;78.61;102570.81;1044126;28;20295;-80
2023/04/18 01:14:01;;;;;;;11.20;9.02;;;;;;;5.31;79.26;102558.03;1042155;28;20341;-81
2023/04/18 01:14:33;;;;;;;13.43;9.10;;;;;;;5.32;78.98;102553.56;1037895;28;20311;-80
2023/04/18 01:15:07;;;;;;;14.77;10.52;;;;;;;5.26;78.97;102561.09;1039791;28;20530;-80
2023/04/18 01:15:41;;;;;;;11.65;9.82;;;;;;;5.20;79.38;102556.38;1042042;28;20394;-80
2023/04/18 01:16:13;;;;;;;13.00;10.00;;;;;;;5.25;78.86;102563.88;1041056;28;20386;-81
2023/04/18 01:16:45;;;;;;;12.68;9.95;;;;;;;5.30;78.44;102561.63;1039653;28;20339;-80
2023/04/18 01:17:18;;;;;;;12.75;9.60;;;;;;;5.22;79.17;102559.69;1040104;28;20815;-80
2023/04/18 01:17:51;;;;;;;12.40;9.43;;;;;;;5.23;78.56;102556.09;1038719;28;20319;-80
2023/04/18 01:18:24;;;;;;;20.73;10.60;;;;;;;5.22;79.19;102559.69;1035471;28;20308;-80
2023/04/18 01:18:56;;;;;;;15.18;9.25;;;;;;;5.21;78.86;102563.31;1036014;28;20315;-80
2023/04/18 01:19:27;;;;;;;15.40;11.02;;;;;;;5.18;79.31;102560.09;1036999;28;20296;-80
2023/04/18 01:20:03;;;;;;;11.52;9.95;;;;;;;5.15;79.23;102558.56;1040390;28;20307;-80
2023/04/18 01:20:44;;;;;;;13.55;9.45;;;;;;;5.14;79.36;102556.91;1041482;28;20288;-80
2023/04/18 01:21:17;;;;;;;13.82;9.80;;;;;;;5.16;79.46;102560.22;1042405;28;20296;-81
2023/04/18 01:21:53;;;;;;;11.88;10.02;;;;;;;5.15;79.46;102555.91;1039250;28;20303;-80
2023/04/18 01:22:25;;;;;;;13.18;9.05;;;;;;;5.12;79.51;102553.56;1034511;28;20301;-80
2023/04/18 01:22:57;;;;;;;10.38;9.18;;;;;;;5.16;79.32;102557.59;1032954;28;20306;-80
2023/04/18 01:23:29;;;;;;;11.82;9.73;;;;;;;5.15;79.56;102558.56;1036434;28;20387;-81
2023/04/18 01:24:11;;;;;;;14.15;9.55;;;;;;;5.10;79.56;102549.38;1031985;28;20301;-80
2023/04/18 01:24:48;;;;;;;15.70;10.32;;;;;;;5.11;79.35;102556.34;1029234;28;20800;-80
2023/04/18 01:25:20;;;;;;;18.10;10.13;;;;;;;5.09;79.57;102553.84;1030311;28;20351;-80
2023/04/18 01:25:52;;;;;;;11.55;9.90;;;;;;;5.11;79.86;102557.16;1036611;28;20296;-81
2023/04/18 01:26:23;;;;;;;10.50;8.80;;;;;;;5.10;79.72;102552.88;1037856;28;20336;-81
2023/04/18 01:26:56;;;;;;;10.65;9.48;;;;;;;5.07;79.98;102555.78;1038512;28;20300;-81
2023/04/18 01:27:27;;;;;;;16.10;9.93;;;;;;;5.09;79.95;102553.00;1037929;28;20312;-80
2023/04/18 01:27:59;;;;;;;11.27;9.93;;;;;;;5.12;79.58;102553.56;1038322;28;20323;-80
2023/04/18 01:28:35;;;;;;;11.32;9.85;;;;;;;5.07;79.71;102553.16;1040483;28;20296;-80
2023/04/18 01:29:06;;;;;;;12.70;9.73;;;;;;;5.03;80.06;102554.41;1037760;28;20352;-80
2023/04/18 01:29:38;;;;;;;10.40;9.32;;;;;;;5.05;79.79;102552.44;1035490;28;20305;-80
2023/04/18 01:30:10;;;;;;;12.45;9.40;;;;;;;5.06;79.45;102546.19;1035222;28;20348;-80
2023/04/18 01:30:42;;;;;;;13.77;10.55;;;;;;;5.10;79.53;102549.38;1036200;28;20884;-80
2023/04/18 01:31:14;;;;;;;11.63;8.90;;;;;;;5.11;79.19;102551.88;1036186;28;20830;-80
2023/04/18 01:31:45;;;;;;;12.77;10.25;;;;;;;5.14;78.91;102543.69;1035659;28;20438;-80
2023/04/18 01:32:20;;;;;;;12.02;9.80;;;;;;;5.11;79.00;102551.06;1038742;28;20695;-80
2023/04/18 01:32:51;;;;;;;21.92;9.68;;;;;;;5.03;79.65;102546.47;1039654;28;20306;-80
2023/04/18 01:33:23;;;;;;;11.77;9.75;;;;;;;4.99;80.32;102550.38;1044403;28;20306;-80
2023/04/18 01:33:54;;;;;;;14.02;9.73;;;;;;;5.00;80.25;102543.28;1048324;28;20306;-80
2023/04/18 01:34:26;;;;;;;12.32;9.32;;;;;;;5.03;80.10;102551.75;1047732;28;20850;-80
2023/04/18 01:34:58;;;;;;;10.93;9.77;;;;;;;5.04;79.74;102548.13;1043727;28;20302;-80
2023/04/18 01:35:31;;;;;;;13.75;10.20;;;;;;;5.03;79.98;102551.75;1039581;28;20311;-80
2023/04/18 01:36:03;;;;;;;14.23;10.32;;;;;;;4.98;80.50;102546.06;1035657;28;20374;-80
2023/04/18 01:36:37;;;;;;;16.13;10.95;;;;;;;4.99;81.32;102546.88;1033692;28;20293;-80
2023/04/18 01:37:09;;;;;;;13.45;10.07;;;;;;;4.96;80.73;102553.28;1039328;28;20661;-80
2023/04/18 01:37:40;;;;;;;12.60;9.35;;;;;;;4.95;80.74;102548.97;1044959;28;20294;-80
2023/04/18 01:38:12;;;;;;;14.27;10.50;;;;;;;4.96;81.11;102548.00;1039706;28;20308;-80
2023/04/18 01:38:43;;;;;;;12.95;9.65;;;;;;;4.92;80.78;102544.78;1039889;28;20370;-80
2023/04/18 01:39:17;;;;;;;17.05;9.65;;;;;;;4.93;80.90;102548.25;1044121;28;20291;-79
2023/04/18 01:39:49;;;;;;;13.68;9.77;;;;;;;4.98;80.75;102551.34;1035995;28;20815;-80
2023/04/18 01:40:23;;;;;;;11.45;9.07;;;;;;;5.05;80.44;102536.59;1039290;28;20786;-80
2023/04/18 01:40:55;;;;;;;15.43;9.73;;;;;;;5.08;79.89;102536.31;1039859;28;20303;-80
2023/04/18 01:41:31;;;;;;;10.85;8.55;;;;;;;5.16;79.78;102540.91;1040457;28;20296;-80
2023/04/18 01:42:03;;;;;;;10.85;9.75;;;;;;;5.16;79.63;102540.91;1033443;28;20317;-80
2023/04/18 01:42:34;;;;;;;13.02;10.00;;;;;;;5.13;79.58;102543.81;1039392;28;20292;-80
2023/04/18 01:43:06;;;;;;;13.02;10.93;;;;;;;5.08;80.03;102544.25;1035504;28;20787;-80
2023/04/18 01:43:41;;;;;;;12.52;10.43;;;;;;;5.03;80.42;102549.13;1035540;28;20297;-80
2023/04/18 01:44:13;;;;;;;14.38;10.38;;;;;;;5.03;80.18;102543.84;1043849;28;20789;-79
2023/04/18 01:44:45;;;;;;;13.63;10.82;;;;;;;5.03;80.13;102549.13;1044079;28;20805;-80
2023/04/18 01:45:18;;;;;;;20.30;10.52;;;;;;;5.03;80.20;102549.13;1047769;28;20363;-80
2023/04/18 01:45:50;;;;;;;14.93;10.50;;;;;;;5.04;80.07;102545.50;1043483;28;20302;-80
2023/04/18 01:46:21;;;;;;;12.82;10.07;;;;;;;5.05;80.25;102546.34;1043727;28;20357;-80
2023/04/18 01:46:53;;;;;;;11.32;9.27;;;;;;;5.06;80.43;102548.84;1035630;28;20300;-80
2023/04/18 01:47:25;;;;;;;10.40;9.00;;;;;;;5.03;80.68;102543.84;1037262;28;20292;-80
2023/04/18 01:47:56;;;;;;;14.20;10.27;;;;;;;4.98;80.77;102548.69;1039571;28;20296;-80
2023/04/18 01:48:28;;;;;;;15.18;10.35;;;;;;;4.99;80.86;102547.72;1040850;28;20307;-80
2023/04/18 01:48:59;;;;;;;14.32;9.25;;;;;;;4.99;80.56;102547.72;1047474;28;20290;-80
2023/04/18 01:49:31;;;;;;;11.93;9.35;;;;;;;5.01;80.73;102551.06;1040172;28;20374;-81
2023/04/18 01:50:03;;;;;;;12.30;10.40;;;;;;;5.02;80.37;102552.72;1037753;28;20295;-80
2023/04/18 01:50:35;;;;;;;13.15;9.68;;;;;;;5.04;80.67;102550.78;1035197;28;20822;-80
2023/04/18 01:51:06;;;;;;;15.88;10.95;;;;;;;5.00;80.59;102552.03;1031907;28;20302;-80
2023/04/18 01:51:38;;;;;;;12.63;9.77;;;;;;;5.01;80.74;102548.41;1027874;28;20310;-80
2023/04/18 01:52:12;;;;;;;14.23;10.65;;;;;;;4.99;81.01;102553.00;1028638;28;20360;-80
2023/04/18 01:52:44;;;;;;;12.95;10.40;;;;;;;5.00;80.58;102551.19;1039533;28;20300;-80
2023/04/18 01:53:16;;;;;;;15.15;9.88;;;;;;;5.00;80.50;102545.91;1042220;28;20471;-80
2023/04/18 01:53:48;;;;;;;13.75;10.75;;;;;;;4.98;80.84;102546.06;1044945;28;20303;-80
2023/04/18 01:54:20;;;;;;;12.77;10.43;;;;;;;4.95;80.83;102547.16;1043528;28;20669;-80
2023/04/18 01:54:51;;;;;;;14.20;10.68;;;;;;;4.96;81.03;102548.00;1039583;28;20316;-80
2023/04/18 01:55:23;;;;;;;14.52;10.73;;;;;;;4.96;80.97;102548.00;1039882;28;20816;-80
2023/04/18 01:55:56;;;;;;;14.48;10.50;;;;;;;4.98;81.26;102546.06;1035954;28;20821;-80
2023/04/18 01:56:28;;;;;;;15.50;10.25;;;;;;;4.96;81.34;102548.84;1040066;28;20291;-80
2023/04/18 01:57:02;;;;;;;15.02;10.55;;;;;;;4.96;81.16;102548.84;1039647;28;20342;-80
2023/04/18 01:57:35;;;;;;;12.77;10.30;;;;;;;5.00;81.14;102549.41;1036150;28;20305;-80
2023/04/18 01:58:07;;;;;;;12.13;10.02;;;;;;;4.96;80.75;102545.38;1039612;28;20798;-81
2023/04/18 01:58:40;;;;;;;12.38;10.00;;;;;;;4.95;80.92;102548.97;1043989;28;20429;-80
2023/04/18 01:59:12;;;;;;;13.75;10.68;;;;;;;4.93;81.47;102548.25;1042182;28;20303;-80
2023/04/18 01:59:43;;;;;;;11.80;9.82;;;;;;;4.90;81.81;102553.81;1040025;28;20306;-81
2023/04/18 02:00:15;;;;;;;14.95;9.93;;;;;;;4.96;81.05;102553.28;1034870;28;20301;-81
2023/04/18 02:00:47;;;;;;;14.93;11.57;;;;;;;4.91;81.50;102550.19;1031642;28;20289;-80
2023/04/18 02:01:19;;;;;;;12.18;9.95;;;;;;;4.88;81.64;102545.19;1032675;28;20297;-81
2023/04/18 02:01:51;;;;;;;15.30;10.98;;;;;;;4.90;81.69;102548.53;1040104;28;20310;-81
2023/04/18 02:02:23;;;;;;;12.30;10.73;;;;;;;4.89;81.57;102552.13;1046480;28;20787;-80
2023/04/18 02:02:57;;;;;;;11.95;9.75;;;;;;;4.87;81.66;102548.81;1039738;28;20737;-80
2023/04/18 02:03:29;;;;;;;14.10;10.98;;;;;;;4.90;81.50;102551.16;1043685;28;20295;-80
2023/04/18 02:04:01;;;;;;;12.02;10.10;;;;;;;4.91;81.67;102552.84;1036301;28;20292;-80
2023/04/18 02:04:33;;;;;;;13.85;10.25;;;;;;;4.90;81.68;102552.00;1035549;28;20324;-80
2023/04/18 02:05:05;;;;;;;13.52;10.32;;;;;;;4.92;81.54;102547.41;1041346;28;20318;-80
2023/04/18 02:05:37;;;;;;;14.68;10.65;;;;;;;4.93;81.62;102549.13;1031127;28;20305;-80
2023/04/18 02:06:11;;;;;;;12.13;10.52;;;;;;;4.87;81.81;102554.09;1030167;28;20798;-80
2023/04/18 02:06:42;;;;;;;12.23;9.88;;;;;;;4.85;82.09;102551.59;1041682;28;20399;-80
2023/04/18 02:07:14;;;;;;;13.63;9.93;;;;;;;4.84;81.79;102546.44;1041050;28;20303;-80
2023/04/18 02:07:48;;;;;;;14.15;11.57;;;;;;;4.85;81.79;102553.38;1041298;28;20734;-80
2023/04/18 02:08:19;;;;;;;12.23;10.07;;;;;;;4.85;81.61;102548.09;1044419;28;20812;-80
2023/04/18 02:08:51;;;;;;;13.60;10.82;;;;;;;4.80;81.83;102550.34;1040041;28;20304;-80
2023/04/18 02:09:22;;;;;;;13.93;10.48;;;;;;;4.84;81.56;102549.91;1044127;28;20797;-80
2023/04/18 02:09:54;;;;;;;12.70;10.27;;;;;;;4.83;82.04;102553.53;1045954;28;20315;-80
2023/04/18 02:10:26;;;;;;;14.25;10.15;;;;;;;4.84;81.71;102549.09;1039128;28;20311;-80
2023/04/18 02:10:57;;;;;;;14.00;10.10;;;;;;;4.82;82.03;102551.84;1041960;28;20805;-80
2023/04/18 02:11:29;;;;;;;12.85;10.43;;;;;;;4.81;81.84;102559.91;1039725;28;20307;-80
2023/04/18 02:12:01;;;;;;;14.07;10.65;;;;;;;4.79;81.84;102556.59;1035538;28;20304;-80
2023/04/18 02:12:33;;;;;;;14.52;10.93;;;;;;;4.78;82.08;102549.63;1035694;28;20327;-80
2023/04/18 02:13:05;;;;;;;12.07;10.63;;;;;;;4.78;82.17;102562.84;1043749;28;20295;-81
2023/04/18 02:13:37;;;;;;;11.68;9.88;;;;;;;4.76;82.53;102556.84;1036135;28;20296;-80
2023/04/18 02:14:10;;;;;;;14.63;10.93;;;;;;;4.74;82.71;102551.72;1040254;28;20307;-80
2023/04/18 02:14:42;;;;;;;13.27;10.68;;;;;;;4.76;82.38;102546.28;1038700;28;20536;-80
2023/04/18 02:15:14;;;;;;;13.57;10.98;;;;;;;4.79;82.27;102551.31;1036676;28;20368;-80
2023/04/18 02:15:45;;;;;;;14.45;10.40;;;;;;;4.78;81.94;102550.47;1036562;28;20301;-80
2023/04/18 02:16:18;;;;;;;13.50;10.27;;;;;;;4.79;82.31;102557.41;1039997;28;22113;-80
2023/04/18 02:16:50;;;;;;;17.35;12.15;;;;;;;4.81;82.38;102552.00;1039760;28;20300;-80
2023/04/18 02:17:22;;;;;;;11.50;10.18;;;;;;;4.79;82.48;102551.31;1047617;28;20298;-80
2023/04/18 02:17:54;;;;;;;17.02;11.43;;;;;;;4.79;82.37;102554.78;1043525;28;20657;-80
2023/04/18 02:18:27;;;;;;;16.95;10.52;;;;;;;4.73;82.55;102551.84;1044449;28;20306;-80
2023/04/18 02:18:59;;;;;;;16.23;10.20;;;;;;;4.70;82.47;102546.84;1046290;28;20299;-80
2023/04/18 02:19:30;;;;;;;15.20;10.95;;;;;;;4.68;82.56;102559.34;1043589;28;20307;-81
2023/04/18 02:20:02;;;;;;;11.88;10.27;;;;;;;4.64;83.37;102548.19;1039551;28;20336;-80
2023/04/18 02:20:35;;;;;;;12.75;10.43;;;;;;;4.64;83.23;102558.75;1043685;28;20643;-80
2023/04/18 02:21:08;;;;;;;16.67;10.25;;;;;;;4.69;83.13;102556.56;1043178;28;20823;-80
2023/04/18 02:21:40;;;;;;;11.63;10.38;;;;;;;4.67;83.52;102550.59;1043900;28;20311;-80
2023/04/18 02:22:12;;;;;;;12.50;11.20;;;;;;;4.68;83.35;102554.06;1043732;28;20808;-80
2023/04/18 02:22:46;;;;;;;16.98;10.98;;;;;;;4.69;83.18;102550.47;1039943;28;20303;-81
2023/04/18 02:23:18;;;;;;;12.32;10.23;;;;;;;4.67;83.78;102552.41;1043536;28;20299;-81
2023/04/18 02:23:51;;;;;;;15.50;10.68;;;;;;;4.68;83.36;102556.72;1042521;28;20291;-80
2023/04/18 02:24:25;;;;;;;15.88;10.98;;;;;;;4.68;83.42;102554.06;1045128;28;20678;-81
2023/04/18 02:24:57;;;;;;;12.65;10.18;;;;;;;4.68;83.65;102554.06;1043548;28;20322;-81
2023/04/18 02:25:29;;;;;;;16.92;10.60;;;;;;;4.68;83.55;102554.06;1043497;28;20318;-80
2023/04/18 02:26:00;;;;;;;15.02;11.18;;;;;;;4.72;83.78;102556.28;1035510;28;20297;-80
2023/04/18 02:26:32;;;;;;;12.00;10.80;;;;;;;4.73;83.68;102550.03;1036015;28;20313;-81
2023/04/18 02:27:04;;;;;;;12.60;11.27;;;;;;;4.72;83.46;102553.66;1043223;28;20322;-80
2023/04/18 02:27:35;;;;;;;14.38;11.85;;;;;;;4.75;83.86;102556.03;1040346;28;20296;-80
2023/04/18 02:28:07;;;;;;;12.18;10.88;;;;;;;4.75;83.57;102555.19;1039098;28;20300;-80
2023/04/18 02:28:38;;;;;;;13.85;11.40;;;;;;;4.77;83.61;102550.59;1035161;28;20403;-80
2023/04/18 02:29:10;;;;;;;12.45;9.50;;;;;;;4.79;83.61;102551.31;1036169;28;20304;-81
2023/04/18 02:29:42;;;;;;;15.65;10.15;;;;;;;4.79;83.40;102560.06;1035724;28;20299;-81